Time;durP1;ratioP1;P1;durP2;ratioP2;P2;SDS_P1;SDS_P2;PMS_P1;PMS_P2;Temp;Humidity;BMP_temperature;BMP_pressure;BME280_temperature;BME280_humidity;BME280_pressure;Samples;Min_cycle;Max_cycle;Signal;HPM_P1;HPM_P2
2024/04/05 00:01:29;;;;;;;;;3.50;2.25;;;;;15.90;80.37;100538.16;5055116;28;46916;-61
2024/04/05 00:03:55;;;;;;;;;3.00;2.50;;;;;15.89;79.93;100530.31;5057790;28;46068;-60
2024/04/05 00:06:21;;;;;;;;;5.25;3.00;;;;;15.89;80.41;100520.59;5060567;28;45474;-61
2024/04/05 00:08:46;;;;;;;;;5.75;3.00;;;;;15.90;80.35;100518.81;5049497;28;45304;-61
2024/04/05 00:11:11;;;;;;;;;3.00;2.25;;;;;15.90;80.36;100522.31;5060419;28;72132;-62
2024/04/05 00:13:37;;;;;;;;;4.25;4.25;;;;;15.92;80.17;100522.25;5060776;28;45252;-62
2024/04/05 00:16:06;;;;;;;;;5.25;4.00;;;;;15.91;80.42;100513.44;5059548;28;72291;-62
2024/04/05 00:18:34;;;;;;;;;7.00;3.25;;;;;15.90;80.36;100513.53;5060917;28;45525;-63
2024/04/05 00:21:04;;;;;;;;;4.00;3.00;;;;;15.89;80.12;100510.03;5043601;28;45495;-62
2024/04/05 00:23:31;;;;;;;;;5.25;4.00;;;;;15.88;80.28;100507.47;5053908;28;48471;-61
2024/04/05 00:26:00;;;;;;;;;4.75;3.00;;;;;15.86;80.45;100501.44;5054632;28;45292;-62
2024/04/05 00:28:27;;;;;;;;;4.25;4.25;;;;;15.84;80.39;100498.03;5051748;28;45442;-61
2024/04/05 00:30:52;;;;;;;;;3.25;2.50;;;;;15.82;80.60;100492.00;5060361;28;45601;-61
2024/04/05 00:33:17;;;;;;;;;4.50;2.50;;;;;15.81;80.50;100483.22;5056503;28;46112;-61
2024/04/05 00:35:53;;;;;;;;;7.50;3.25;;;;;15.82;80.71;100484.91;5059747;28;45265;-62
2024/04/05 00:38:19;;;;;;;;;6.00;3.50;;;;;15.81;80.41;100479.72;5042552;28;45428;-62
2024/04/05 00:40:45;;;;;;;;;4.50;4.25;;;;;15.78;80.58;100470.19;5059750;28;45632;-62
2024/04/05 00:43:10;;;;;;;;;4.75;4.25;;;;;15.78;80.58;100464.91;5055480;28;45509;-62
2024/04/05 00:45:35;;;;;;;;;3.00;3.00;;;;;15.75;80.71;100460.63;5051057;28;47186;-62
2024/04/05 00:48:01;;;;;;;;;5.00;3.50;;;;;15.75;80.67;100447.44;5060523;27;45792;-62
2024/04/05 00:50:30;;;;;;;;;4.00;3.25;;;;;15.75;80.63;100455.34;5058777;28;61963;-62
2024/04/05 00:52:58;;;;;;;;;3.75;3.50;;;;;15.73;80.35;100453.72;5054549;28;46067;-61
2024/04/05 00:55:24;;;;;;;;;4.25;2.75;;;;;15.68;80.53;100456.59;5056363;28;45858;-62
2024/04/05 00:57:49;;;;;;;;;5.00;3.00;;;;;15.66;80.64;100460.25;5056863;28;45422;-62
2024/04/05 01:00:15;;;;;;;;;4.25;3.50;;;;;15.65;81.03;100453.25;5053101;28;48616;-62
2024/04/05 01:02:41;;;;;;;;;3.00;2.50;;;;;15.63;80.51;100442.78;5058463;28;46219;-62
2024/04/05 01:05:06;;;;;;;;;5.00;3.25;;;;;15.60;80.82;100448.25;5057813;28;68589;-63
2024/04/05 01:07:32;;;;;;;;;3.50;3.00;;;;;15.58;80.51;100436.91;5058659;28;45462;-62
2024/04/05 01:09:58;;;;;;;;;2.50;2.00;;;;;15.56;80.97;100433.50;5056074;28;45229;-62
2024/04/05 01:12:23;;;;;;;;;4.50;2.50;;;;;15.54;80.80;100430.94;5034994;28;49433;-62
2024/04/05 01:14:48;;;;;;;;;2.50;2.50;;;;;15.51;80.86;100427.59;5054389;28;73100;-61
2024/04/05 01:17:14;;;;;;;;;3.50;2.00;;;;;15.50;80.90;100416.22;5052819;28;66592;-62
2024/04/05 01:19:40;;;;;;;;;2.50;2.50;;;;;15.49;81.08;100417.16;5056420;28;72061;-62
2024/04/05 01:22:11;;;;;;;;;4.50;3.25;;;;;15.47;81.19;100416.38;5058826;28;73806;-61
2024/04/05 01:24:36;;;;;;;;;5.00;4.00;;;;;15.46;81.41;100413.84;5056303;28;45403;-61
2024/04/05 01:27:01;;;;;;;;;4.25;4.25;;;;;15.46;81.00;100419.94;5058425;28;45570;-61
2024/04/05 01:29:27;;;;;;;;;3.00;3.00;;;;;15.45;80.97;100415.59;5059056;28;55674;-62
2024/04/05 01:31:52;;;;;;;;;5.25;2.50;;;;;15.43;81.18;100414.81;5056586;28;59161;-62
2024/04/05 01:34:17;;;;;;;;;9.25;3.50;;;;;15.41;81.03;100421.97;5058792;28;45334;-61
2024/04/05 01:36:43;;;;;;;;;3.75;3.75;;;;;15.40;81.28;100422.88;5048893;28;69531;-62
2024/04/05 01:39:08;;;;;;;;;2.75;2.00;;;;;15.38;80.98;100419.50;5059256;28;71942;-63
2024/04/05 01:41:35;;;;;;;;;3.00;2.50;;;;;15.36;81.17;100416.09;5053264;28;74877;-63
2024/04/05 01:44:02;;;;;;;;;4.00;1.50;;;;;15.35;81.21;100422.28;5059581;28;45415;-62
2024/04/05 01:46:27;;;;;;;;;2.50;2.50;;;;;15.32;80.92;100422.47;5058587;28;45490;-62
2024/04/05 01:48:53;;;;;;;;;4.00;2.00;;;;;15.31;81.08;100423.38;5059538;28;45354;-62
2024/04/05 01:51:18;;;;;;;;;1.50;1.50;;;;;15.29;80.82;100417.34;5047223;28;65496;-62
2024/04/05 01:53:43;;;;;;;;;3.25;3.00;;;;;15.28;81.12;100408.59;5054165;28;74300;-62
2024/04/05 01:56:08;;;;;;;;;3.75;3.00;;;;;15.26;81.32;100406.94;5052949;28;66273;-62
2024/04/05 01:58:34;;;;;;;;;4.25;3.00;;;;;15.23;81.60;100397.41;5057007;28;73333;-62
2024/04/05 02:01:00;;;;;;;;;2.25;2.00;;;;;15.20;81.15;100387.03;5053050;28;72128;-62
2024/04/05 02:03:26;;;;;;;;;2.00;2.00;;;;;15.16;81.32;100385.50;5058805;28;45725;-62
2024/04/05 02:05:51;;;;;;;;;3.00;3.00;;;;;15.13;81.47;100375.09;5057762;28;45930;-62
2024/04/05 02:08:16;;;;;;;;;4.00;2.50;;;;;15.13;81.37;100377.72;5057572;28;74788;-63
2024/04/05 02:10:42;;;;;;;;;6.75;3.25;;;;;15.13;81.06;100373.31;5057476;28;73982;-61
2024/04/05 02:13:07;;;;;;;;;4.25;2.25;;;;;15.14;81.25;100369.75;5054407;28;73473;-61
2024/04/05 02:15:32;;;;;;;;;4.00;3.00;;;;;15.14;81.26;100375.03;5046137;28;58098;-61
2024/04/05 02:17:57;;;;;;;;;2.75;2.75;;;;;15.14;80.86;100367.13;5052776;28;69391;-61
2024/04/05 02:20:23;;;;;;;;;4.50;3.00;;;;;15.15;81.40;100366.16;5051543;28;75653;-61
2024/04/05 02:22:48;;;;;;;;;5.75;4.00;;;;;15.15;81.12;100368.81;5054170;28;66966;-61
2024/04/05 02:25:14;;;;;;;;;4.25;4.00;;;;;15.15;80.85;100365.31;5058183;28;69255;-61
2024/04/05 02:27:39;;;;;;;;;3.25;2.50;;;;;15.15;80.92;100363.53;5057800;28;46114;-60
2024/04/05 02:30:06;;;;;;;;;6.25;3.00;;;;;15.14;80.94;100356.56;5044007;28;74592;-61
2024/04/05 02:32:31;;;;;;;;;3.50;3.25;;;;;15.13;80.78;100357.50;5049562;28;45715;-60
2024/04/05 02:34:57;;;;;;;;;5.50;3.75;;;;;15.12;80.96;100358.44;5053876;28;63582;-61
2024/04/05 02:37:22;;;;;;;;;4.00;3.00;;;;;15.14;80.69;100353.94;5059056;28;45691;-62
2024/04/05 02:39:47;;;;;;;;;4.00;2.00;;;;;15.14;80.81;100361.84;5057657;28;74305;-62
2024/04/05 02:42:13;;;;;;;;;7.50;4.00;;;;;15.15;80.61;100354.78;5058688;28;51243;-61
2024/04/05 02:44:38;;;;;;;;;3.75;3.00;;;;;15.12;80.69;100353.19;5057052;28;70443;-62
2024/04/05 02:47:03;;;;;;;;;3.50;2.00;;;;;15.12;80.89;100347.03;5059266;28;53065;-62
2024/04/05 02:49:29;;;;;;;;;2.00;1.75;;;;;15.12;80.75;100336.47;5056273;28;46907;-63
2024/04/05 02:51:54;;;;;;;;;4.50;3.50;;;;;15.10;80.49;100328.69;5056956;27;62018;-62
2024/04/05 02:54:19;;;;;;;;;3.00;3.00;;;;;15.10;80.32;100328.69;5048260;28;51701;-62
2024/04/05 02:56:45;;;;;;;;;3.75;3.25;;;;;15.13;80.31;100325.03;5054242;28;73158;-62
2024/04/05 02:59:10;;;;;;;;;3.00;3.00;;;;;15.13;80.61;100311.84;5050593;28;55565;-62
2024/04/05 03:01:35;;;;;;;;;4.25;3.25;;;;;15.14;80.30;100310.94;5056502;28;71967;-62
2024/04/05 03:04:00;;;;;;;;;5.00;2.75;;;;;15.14;80.10;100308.28;5057491;28;64466;-62
2024/04/05 03:06:26;;;;;;;;;2.25;2.00;;;;;15.13;80.02;100301.31;5057204;28;45538;-62
2024/04/05 03:08:51;;;;;;;;;4.00;2.50;;;;;15.13;79.82;100301.31;5054263;28;46136;-61
2024/04/05 03:11:17;;;;;;;;;4.25;2.75;;;;;15.11;80.10;100293.47;5055116;28;72009;-62
2024/04/05 03:13:42;;;;;;;;;3.00;2.75;;;;;15.12;80.16;100303.09;5056879;28;45600;-61
2024/04/05 03:16:08;;;;;;;;;6.00;3.00;;;;;15.11;79.75;100288.19;5057852;28;45473;-61
2024/04/05 03:18:33;;;;;;;;;4.25;4.00;;;;;15.11;79.93;100288.19;5056635;28;75884;-61
2024/04/05 03:20:58;;;;;;;;;4.25;3.00;;;;;15.11;79.87;100269.75;5057253;28;73343;-61
2024/04/05 03:23:24;;;;;;;;;4.25;3.25;;;;;15.12;79.70;100267.97;5055017;28;69077;-61
2024/04/05 03:25:49;;;;;;;;;5.00;3.00;;;;;15.09;79.46;100266.34;5060523;28;72338;-62
2024/04/05 03:28:15;;;;;;;;;6.00;4.00;;;;;15.07;79.53;100254.16;5052594;28;75683;-61
2024/04/05 03:30:40;;;;;;;;;3.75;2.00;;;;;15.05;79.91;100243.75;5058018;28;71984;-61
2024/04/05 03:33:05;;;;;;;;;4.00;3.00;;;;;15.08;79.92;100246.19;5058528;28;69265;-61
2024/04/05 03:35:31;;;;;;;;;3.25;2.25;;;;;15.10;79.76;100241.72;5061539;28;45311;-62
2024/04/05 03:37:56;;;;;;;;;2.25;2.00;;;;;15.10;79.61;100232.94;5053233;28;46053;-62
2024/04/05 03:40:22;;;;;;;;;3.50;3.50;;;;;15.12;79.38;100225.78;5060173;28;71878;-61
2024/04/05 03:42:48;;;;;;;;;5.50;2.25;;;;;15.13;79.83;100252.06;5057088;28;45482;-61
2024/04/05 03:45:13;;;;;;;;;4.00;3.00;;;;;15.16;79.52;100227.34;5057561;28;45662;-62
2024/04/05 03:47:38;;;;;;;;;3.50;3.00;;;;;15.18;79.77;100228.94;5058453;28;46289;-62
2024/04/05 03:50:04;;;;;;;;;3.75;3.75;;;;;15.20;79.56;100228.88;5057165;28;71142;-61
2024/04/05 03:52:29;;;;;;;;;3.50;2.00;;;;;15.18;78.98;100215.78;5056557;28;45418;-62
2024/04/05 03:54:55;;;;;;;;;2.00;2.00;;;;;15.18;79.14;100217.56;5053629;28;45422;-62
2024/04/05 03:57:23;;;;;;;;;3.00;2.00;;;;;15.16;78.89;100208.91;5050786;28;74392;-62
2024/04/05 03:59:48;;;;;;;;;2.50;2.50;;;;;15.15;78.77;100204.53;5062550;28;45408;-62
2024/04/05 04:02:14;;;;;;;;;1.25;1.00;;;;;15.14;78.70;100208.13;5059479;28;58058;-62
2024/04/05 04:04:39;;;;;;;;;1.00;1.00;;;;;15.11;78.71;100197.75;5061351;28;45328;-63
2024/04/05 04:07:05;;;;;;;;;4.00;3.00;;;;;15.10;78.40;100186.38;5053506;28;47029;-62
2024/04/05 04:09:30;;;;;;;;;3.75;2.00;;;;;15.10;78.46;100183.72;5053894;28;45391;-62
2024/04/05 04:11:56;;;;;;;;;3.50;2.00;;;;;15.10;78.46;100181.09;5057325;28;45387;-62
2024/04/05 04:14:21;;;;;;;;;2.25;2.25;;;;;15.10;78.22;100175.81;5053477;28;53287;-61
2024/04/05 04:16:46;;;;;;;;;3.25;3.00;;;;;15.11;78.44;100176.66;5053937;28;75497;-61
2024/04/05 04:19:12;;;;;;;;;3.25;2.00;;;;;15.10;78.11;100178.47;5055573;28;72222;-62
2024/04/05 04:21:37;;;;;;;;;2.00;2.00;;;;;15.12;77.99;100171.31;5052237;28;45354;-62
2024/04/05 04:24:03;;;;;;;;;4.50;3.00;;;;;15.14;77.89;100172.06;5054643;28;45399;-62
2024/04/05 04:26:29;;;;;;;;;5.00;2.00;;;;;15.13;77.98;100166.88;5057758;28;46207;-62
2024/04/05 04:28:55;;;;;;;;;3.00;2.00;;;;;15.14;77.93;100172.06;5048833;28;45344;-61
2024/04/05 04:31:22;;;;;;;;;4.00;3.00;;;;;15.14;77.54;100168.59;5056623;28;45284;-62
2024/04/05 04:33:48;;;;;;;;;4.00;1.75;;;;;15.16;77.73;100158.81;5055942;28;45438;-61
2024/04/05 04:36:14;;;;;;;;;1.00;1.00;;;;;15.14;77.55;100142.25;5060616;28;49473;-62
2024/04/05 04:38:39;;;;;;;;;3.25;1.50;;;;;15.15;77.26;100150.03;5060320;28;45250;-63
2024/04/05 04:41:05;;;;;;;;;3.50;1.50;;;;;15.17;77.73;100147.31;5060947;28;45474;-62
2024/04/05 04:43:31;;;;;;;;;2.00;1.00;;;;;15.18;77.29;100138.50;5060551;28;45517;-63
2024/04/05 04:45:56;;;;;;;;;1.00;0.75;;;;;15.18;77.04;100131.44;5054800;28;45282;-61
2024/04/05 04:48:24;;;;;;;;;1.50;1.50;;;;;15.17;76.94;100129.75;5053694;28;45456;-61
2024/04/05 04:50:49;;;;;;;;;2.25;1.00;;;;;15.21;76.95;100124.28;5058963;28;45288;-61
2024/04/05 04:53:16;;;;;;;;;1.00;1.00;;;;;15.21;77.09;100126.91;5057641;28;72894;-62
2024/04/05 04:55:44;;;;;;;;;4.50;2.00;;;;;15.22;77.06;100126.00;5056155;28;46334;-61
2024/04/05 04:58:11;;;;;;;;;1.75;1.00;;;;;15.24;76.55;100129.38;5058069;28;45295;-61
2024/04/05 05:00:36;;;;;;;;;3.00;1.50;;;;;15.25;76.48;100131.09;5059531;28;45300;-60
2024/04/05 05:03:02;;;;;;;;;4.00;2.00;;;;;15.27;76.78;100137.13;5059965;28;50321;-61
2024/04/05 05:05:27;;;;;;;;;2.75;1.00;;;;;15.29;76.45;100130.81;5059320;28;45497;-61
2024/04/05 05:07:52;;;;;;;;;3.00;2.00;;;;;15.30;76.49;100134.34;5051997;27;45470;-61
2024/04/05 05:10:18;;;;;;;;;3.00;2.00;;;;;15.30;76.41;100129.91;5058875;28;62918;-61
2024/04/05 05:12:43;;;;;;;;;3.00;1.00;;;;;15.31;76.23;100136.00;5058846;28;70682;-61
2024/04/05 05:15:09;;;;;;;;;4.00;4.00;;;;;15.31;76.05;100138.66;5051895;28;75652;-62
2024/04/05 05:17:34;;;;;;;;;2.00;2.00;;;;;15.33;75.96;100142.91;5058966;28;45555;-62
2024/04/05 05:20:00;;;;;;;;;3.00;1.50;;;;;15.35;76.01;100146.31;5052271;28;65083;-62
2024/04/05 05:22:25;;;;;;;;;3.75;2.00;;;;;15.35;75.70;100142.81;5068225;28;45395;-62
2024/04/05 05:24:50;;;;;;;;;1.50;1.50;;;;;15.37;75.85;100159.41;5056614;28;75447;-62
2024/04/05 05:27:16;;;;;;;;;2.75;2.00;;;;;15.38;75.50;100161.09;5048055;28;73268;-62
2024/04/05 05:29:41;;;;;;;;;1.75;1.00;;;;;15.39;75.44;100168.09;5056348;28;67851;-61
2024/04/05 05:32:11;;;;;;;;;2.75;2.00;;;;;15.40;75.71;100168.91;5059037;28;62578;-62
2024/04/05 05:34:37;;;;;;;;;2.00;2.00;;;;;15.42;75.38;100169.69;5059897;28;45346;-61
2024/04/05 05:37:03;;;;;;;;;4.50;2.00;;;;;15.44;75.53;100171.31;5056013;28;46911;-61
2024/04/05 05:39:28;;;;;;;;;3.00;2.00;;;;;15.46;75.24;100158.03;5058243;28;45324;-61
2024/04/05 05:41:53;;;;;;;;;4.75;2.00;;;;;15.46;75.35;100169.44;5059199;28;72358;-61
2024/04/05 05:44:19;;;;;;;;;2.00;2.00;;;;;15.47;75.21;100176.38;5057670;28;68373;-62
2024/04/05 05:46:44;;;;;;;;;4.00;3.00;;;;;15.50;75.08;100172.75;5053160;28;73718;-64
2024/04/05 05:49:09;;;;;;;;;3.75;2.00;;;;;15.51;74.83;100182.34;5055648;28;45950;-61
2024/04/05 05:51:35;;;;;;;;;6.00;3.00;;;;;15.52;74.73;100197.25;5051019;28;72122;-64
2024/04/05 05:54:00;;;;;;;;;3.00;1.25;;;;;15.54;74.49;100198.84;5040640;28;51818;-62
2024/04/05 05:56:25;;;;;;;;;3.75;1.25;;;;;15.55;74.51;100197.91;5055983;28;45378;-65
2024/04/05 05:58:51;;;;;;;;;2.00;1.25;;;;;15.58;74.35;100204.78;5058315;28;69386;-63
2024/04/05 06:01:17;;;;;;;;;4.50;2.00;;;;;15.62;73.98;100201.06;5057484;28;72068;-63
2024/04/05 06:03:42;;;;;;;;;2.00;0.50;;;;;15.66;73.45;100201.75;5057667;28;45573;-63
2024/04/05 06:06:08;;;;;;;;;1.50;1.50;;;;;15.69;73.04;100188.38;5052894;28;48496;-64
2024/04/05 06:08:35;;;;;;;;;1.75;1.25;;;;;15.72;72.91;100190.81;5055646;28;45379;-63
2024/04/05 06:11:01;;;;;;;;;6.00;2.00;;;;;15.78;72.17;100187.88;5058627;28;45449;-61
2024/04/05 06:13:27;;;;;;;;;2.50;1.25;;;;;15.84;72.08;100189.31;5056197;28;74940;-62
2024/04/05 06:15:57;;;;;;;;;1.50;1.50;;;;;15.88;71.52;100189.06;5044820;28;45326;-62
2024/04/05 06:18:25;;;;;;;;;2.25;2.00;;;;;15.92;71.20;100192.38;5055477;28;45332;-62
2024/04/05 06:20:56;;;;;;;;;2.25;1.00;;;;;15.98;70.84;100199.91;5061207;28;45292;-61
2024/04/05 06:23:23;;;;;;;;;3.00;1.50;;;;;16.03;70.66;100212.84;5060181;28;45569;-62
2024/04/05 06:25:57;;;;;;;;;1.50;1.50;;;;;16.08;70.23;100206.38;5061149;28;46390;-63
2024/04/05 06:28:22;;;;;;;;;4.00;2.25;;;;;16.15;70.24;100220.06;5064843;28;45194;-61
2024/04/05 06:30:48;;;;;;;;;1.50;1.00;;;;;16.16;69.98;100203.25;5065743;27;45578;-67
2024/04/05 06:33:14;;;;;;;;;2.00;2.00;;;;;16.24;69.63;100216.03;5057534;28;47318;-65
2024/04/05 06:35:40;;;;;;;;;2.00;1.75;;;;;16.23;69.07;100215.16;5053811;28;45436;-64
2024/04/05 06:38:05;;;;;;;;;4.00;1.75;;;;;16.32;68.99;100229.63;5057450;28;45476;-63
2024/04/05 06:40:30;;;;;;;;;1.00;1.00;;;;;16.37;68.55;100229.34;5058583;28;71120;-70
2024/04/05 06:42:56;;;;;;;;;1.50;0.50;;;;;16.37;68.27;100219.63;5056621;28;50062;-64
2024/04/05 06:45:22;;;;;;;;;1.75;1.50;;;;;16.42;68.06;100228.13;5056100;28;45827;-63
2024/04/05 06:47:49;;;;;;;;;1.75;1.75;;;;;16.46;67.93;100229.63;5047842;28;45509;-67
2024/04/05 06:50:14;;;;;;;;;1.25;0.75;;;;;16.49;67.82;100241.84;5049252;28;45569;-62
2024/04/05 06:52:40;;;;;;;;;1.00;1.00;;;;;16.53;67.48;100251.25;5058984;28;46217;-62
2024/04/05 06:55:05;;;;;;;;;2.75;1.00;;;;;16.56;67.17;100253.72;5071634;28;66657;-64
2024/04/05 06:57:30;;;;;;;;;2.75;1.75;;;;;16.59;66.65;100265.88;5055873;28;45695;-61
2024/04/05 06:59:56;;;;;;;;;1.75;1.75;;;;;16.61;66.50;100254.31;5038770;28;71606;-61
2024/04/05 07:02:22;;;;;;;;;1.00;1.00;;;;;16.63;65.97;100226.00;5051051;28;75717;-55
2024/04/05 07:04:47;;;;;;;;;1.00;1.00;;;;;16.64;66.54;100214.50;5048450;27;45253;-54
2024/04/05 07:07:13;;;;;;;;;5.50;1.75;;;;;16.67;66.14;100198.44;5055402;28;45435;-54
2024/04/05 07:09:38;;;;;;;;;4.25;2.00;;;;;16.66;65.91;100240.81;5053028;28;73228;-54
2024/04/05 07:12:04;;;;;;;;;3.50;0.75;;;;;16.69;66.20;100216.84;5057907;28;75890;-51
2024/04/05 07:14:30;;;;;;;;;0.75;0.75;;;;;16.71;66.33;100251.94;5059458;28;45400;-57
2024/04/05 07:16:56;;;;;;;;;1.00;0.75;;;;;16.75;65.97;100226.19;5057736;28;45320;-64
2024/04/05 07:19:21;;;;;;;;;3.50;1.75;;;;;16.76;66.13;100252.53;5044268;28;72860;-54
2024/04/05 07:21:47;;;;;;;;;2.00;2.00;;;;;16.77;65.91;100272.72;5055337;28;74010;-69
2024/04/05 07:24:13;;;;;;;;;2.25;1.75;;;;;16.81;65.95;100313.03;5055241;28;45474;-71
2024/04/05 07:26:39;;;;;;;;;2.50;1.25;;;;;16.82;65.82;100335.84;5056880;28;45352;-71
2024/04/05 07:29:05;;;;;;;;;3.00;2.50;;;;;16.81;65.31;100334.19;5054045;28;44903;-69
2024/04/05 07:31:33;;;;;;;;;3.75;3.75;;;;;16.86;65.25;100361.22;5060985;28;46477;-73
2024/04/05 07:33:58;;;;;;;;;1.75;1.75;;;;;16.88;65.36;100370.75;5057617;28;45465;-72
2024/04/05 07:36:23;;;;;;;;;3.00;2.00;;;;;16.88;65.82;100375.19;5055621;28;64652;-72
2024/04/05 07:38:49;;;;;;;;;2.25;2.00;;;;;16.88;65.89;100373.38;5056323;28;48874;-72
2024/04/05 07:41:14;;;;;;;;;2.00;1.75;;;;;16.86;66.38;100359.41;5047829;28;46358;-76
2024/04/05 07:43:41;;;;;;;;;3.00;3.00;;;;;16.82;66.32;100357.00;5049177;28;45316;-72
2024/04/05 07:46:07;;;;;;;;;3.50;2.25;;;;;16.79;66.65;100352.75;5049058;28;45336;-80
2024/04/05 07:48:32;;;;;;;;;2.00;2.00;;;;;16.80;67.13;100346.53;5055414;28;45300;-68
2024/04/05 07:51:02;;;;;;;;;4.25;2.00;;;;;16.77;67.45;100352.00;5055433;28;64455;-75
2024/04/05 07:53:27;;;;;;;;;5.00;3.00;;;;;16.74;68.01;100338.97;5049047;28;45836;-74
2024/04/05 07:55:53;;;;;;;;;4.25;1.50;;;;;16.72;68.18;100343.50;5036968;28;61379;-71
2024/04/05 07:58:21;;;;;;;;;2.50;1.50;;;;;16.68;68.54;100329.63;5052541;28;73275;-65
2024/04/05 08:00:48;;;;;;;;;4.00;2.25;;;;;16.70;68.93;100313.69;5050501;28;45422;-71
2024/04/05 08:03:13;;;;;;;;;1.75;1.75;;;;;16.68;69.38;100303.19;5056923;27;45302;-72
2024/04/05 08:05:39;;;;;;;;;5.25;3.25;;;;;16.69;69.79;100301.41;5050585;28;45422;-73
2024/04/05 08:08:04;;;;;;;;;3.25;2.50;;;;;16.67;69.42;100304.13;5054769;28;45422;-65
2024/04/05 08:10:32;;;;;;;;;3.75;1.50;;;;;16.65;69.82;100327.16;5044985;28;47076;-66
2024/04/05 08:12:58;;;;;;;;;3.75;2.75;;;;;16.65;70.06;100334.22;5058642;28;45339;-71
2024/04/05 08:15:24;;;;;;;;;2.00;2.00;;;;;16.64;70.40;100357.16;5048432;28;69237;-70
2024/04/05 08:17:49;;;;;;;;;2.25;2.25;;;;;16.62;70.61;100368.75;5061166;28;45517;-70
2024/04/05 08:20:15;;;;;;;;;3.75;2.00;;;;;16.63;70.71;100381.88;5061050;28;59377;-71
2024/04/05 08:22:41;;;;;;;;;4.00;2.75;;;;;16.64;71.29;100380.06;5061347;28;45754;-68
2024/04/05 08:25:07;;;;;;;;;2.75;2.00;;;;;16.64;71.23;100369.50;5060776;28;67629;-68
2024/04/05 08:27:33;;;;;;;;;1.50;1.25;;;;;16.67;71.41;100377.25;5059724;28;45388;-69
2024/04/05 08:29:58;;;;;;;;;3.75;3.75;;;;;16.69;71.79;100384.16;5062018;28;45365;-70
2024/04/05 08:32:24;;;;;;;;;6.75;3.75;;;;;16.71;71.80;100373.50;5061697;28;46524;-66
2024/04/05 08:34:49;;;;;;;;;2.25;2.00;;;;;16.74;71.72;100367.19;5054622;28;45275;-69
2024/04/05 08:37:15;;;;;;;;;3.50;2.75;;;;;16.76;71.84;100370.59;5047256;28;45482;-69
2024/04/05 08:39:41;;;;;;;;;3.50;2.75;;;;;16.77;71.80;100373.16;5053354;28;59713;-68
2024/04/05 08:42:13;;;;;;;;;2.00;1.50;;;;;16.83;71.71;100379.84;5060264;28;45600;-70
2024/04/05 08:44:39;;;;;;;;;5.25;3.50;;;;;16.89;71.95;100387.44;5059022;28;45390;-71
2024/04/05 08:47:06;;;;;;;;;4.00;2.50;;;;;16.93;71.57;100369.59;5056597;28;45537;-65
2024/04/05 08:49:32;;;;;;;;;2.00;1.50;;;;;16.97;70.91;100371.16;5057571;27;46242;-70
2024/04/05 08:51:58;;;;;;;;;1.75;1.75;;;;;16.97;71.27;100379.91;5059169;28;45247;-68
2024/04/05 08:54:23;;;;;;;;;2.75;2.75;;;;;16.98;71.15;100389.56;5061289;28;45324;-64
2024/04/05 08:56:50;;;;;;;;;3.50;2.25;;;;;17.00;71.15;100379.75;5056151;28;61234;-70
2024/04/05 08:59:17;;;;;;;;;5.00;3.50;;;;;17.03;71.20;100391.91;5048149;28;46395;-65
2024/04/05 09:01:47;;;;;;;;;5.00;2.25;;;;;17.08;70.95;100395.13;5048847;28;45654;-64
2024/04/05 09:04:14;;;;;;;;;3.25;1.75;;;;;17.09;70.83;100388.94;5055345;27;45363;-63
2024/04/05 09:06:40;;;;;;;;;5.75;4.00;;;;;17.14;70.87;100381.56;5053765;27;45433;-67
2024/04/05 09:09:05;;;;;;;;;5.25;3.75;;;;;17.18;70.96;100385.72;5056652;28;51977;-73
2024/04/05 09:11:31;;;;;;;;;5.50;3.25;;;;;17.23;70.81;100385.47;5051999;28;58469;-62
2024/04/05 09:14:01;;;;;;;;;5.00;4.50;;;;;17.28;70.49;100393.94;5045182;28;69458;-65
2024/04/05 09:16:26;;;;;;;;;7.50;5.00;;;;;17.32;70.70;100386.69;5059939;28;45497;-66
2024/04/05 09:19:01;;;;;;;;;5.00;3.00;;;;;17.37;70.50;100396.03;5059299;28;45274;-67
2024/04/05 09:21:26;;;;;;;;;3.75;3.00;;;;;17.41;70.22;100404.66;5049645;28;45323;-64
2024/04/05 09:23:52;;;;;;;;;3.50;2.75;;;;;17.49;70.03;100398.88;5053828;28;49403;-65
2024/04/05 09:26:24;;;;;;;;;4.50;3.00;;;;;17.62;69.95;100403.31;5048970;28;64443;-62
2024/04/05 09:29:00;;;;;;;;;5.50;3.00;;;;;17.77;69.56;100409.44;5054057;28;46149;-62
2024/04/05 09:31:26;;;;;;;;;4.50;2.00;;;;;17.82;69.13;100417.13;5051749;28;45352;-65
2024/04/05 09:34:04;;;;;;;;;6.00;4.00;;;;;17.85;69.25;100411.63;5060085;28;45702;-71
2024/04/05 09:36:29;;;;;;;;;4.75;3.50;;;;;17.89;68.99;100409.69;5050010;27;45253;-67
2024/04/05 09:38:55;;;;;;;;;4.50;3.00;;;;;17.87;68.78;100438.03;5052575;28;70496;-69
2024/04/05 09:41:21;;;;;;;;;2.75;2.75;;;;;17.87;68.78;100438.88;5060304;28;73351;-72
2024/04/05 09:43:47;;;;;;;;;3.50;2.00;;;;;17.91;68.82;100437.75;5062072;28;64181;-68
2024/04/05 09:46:14;;;;;;;;;2.25;2.25;;;;;17.96;68.42;100433.00;5048923;28;72126;-66
2024/04/05 09:48:40;;;;;;;;;4.00;2.25;;;;;18.02;67.91;100434.41;5052359;28;45555;-66
2024/04/05 09:51:13;;;;;;;;;1.25;1.25;;;;;18.05;67.95;100444.81;5055349;28;45441;-65
2024/04/05 09:53:45;;;;;;;;;2.75;2.00;;;;;18.10;67.56;100445.38;5056078;28;45531;-66
2024/04/05 09:56:12;;;;;;;;;2.00;2.00;;;;;18.20;67.86;100448.28;5039828;28;45392;-66
2024/04/05 09:58:39;;;;;;;;;2.25;1.00;;;;;18.32;67.46;100446.66;5055532;28;46289;-66
2024/04/05 10:01:08;;;;;;;;;3.50;2.00;;;;;18.48;67.53;100442.06;5059797;28;45358;-64
2024/04/05 10:03:33;;;;;;;;;3.50;3.50;;;;;18.63;67.00;100442.88;5056847;28;45436;-65
2024/04/05 10:06:11;;;;;;;;;2.75;2.75;;;;;18.77;66.60;100444.63;5051535;28;45378;-67
2024/04/05 10:08:36;;;;;;;;;2.00;2.00;;;;;18.81;66.64;100448.78;5051312;28;45533;-65
2024/04/05 10:11:15;;;;;;;;;3.00;0.75;;;;;18.84;66.15;100455.69;5060123;28;50646;-61
2024/04/05 10:13:41;;;;;;;;;2.75;2.75;;;;;18.90;65.77;100444.69;5058119;28;45500;-66
2024/04/05 10:16:08;;;;;;;;;4.00;2.00;;;;;18.97;65.78;100446.00;5056508;28;45537;-64
2024/04/05 10:18:38;;;;;;;;;2.75;1.75;;;;;19.10;66.04;100438.06;5055485;28;46895;-64
2024/04/05 10:21:08;;;;;;;;;2.00;1.50;;;;;19.28;65.01;100443.91;5072221;28;45435;-69
2024/04/05 10:23:34;;;;;;;;;2.25;1.75;;;;;19.40;65.27;100437.75;5043741;28;45321;-70
2024/04/05 10:26:00;;;;;;;;;4.75;2.00;;;;;19.47;64.18;100447.00;5049976;28;45238;-68
2024/04/05 10:28:26;;;;;;;;;7.25;3.50;;;;;19.59;64.39;100447.97;5055756;28;73681;-67
2024/04/05 10:30:53;;;;;;;;;2.00;2.00;;;;;19.65;64.27;100438.72;5059617;28;45361;-67
2024/04/05 10:33:19;;;;;;;;;2.75;2.75;;;;;19.74;63.89;100443.41;5045622;28;45398;-69
2024/04/05 10:35:46;;;;;;;;;1.75;1.75;;;;;19.80;63.86;100439.50;5041753;28;46072;-66
2024/04/05 10:38:11;;;;;;;;;3.00;2.00;;;;;19.81;63.55;100443.84;5050280;28;46165;-63
2024/04/05 10:40:37;;;;;;;;;4.50;3.00;;;;;19.82;63.19;100442.88;5059718;28;45309;-69
2024/04/05 10:43:10;;;;;;;;;5.00;2.00;;;;;19.84;62.76;100444.47;5053852;28;45656;-71
2024/04/05 10:45:37;;;;;;;;;3.75;3.75;;;;;19.87;63.17;100438.94;5052777;28;45335;-65
2024/04/05 10:48:04;;;;;;;;;4.25;2.00;;;;;19.95;63.02;100445.53;5059574;28;46242;-69
2024/04/05 10:50:29;;;;;;;;;2.00;2.00;;;;;19.99;62.21;100434.56;5056499;28;45281;-73
2024/04/05 10:52:55;;;;;;;;;3.00;1.25;;;;;20.08;62.05;100441.88;5059947;28;45244;-71
2024/04/05 10:55:20;;;;;;;;;5.00;2.25;;;;;20.19;62.04;100449.09;5054584;28;45430;-71
2024/04/05 10:57:46;;;;;;;;;6.25;4.75;;;;;20.36;62.27;100450.53;5050141;28;46375;-71
2024/04/05 11:00:13;;;;;;;;;4.25;3.00;;;;;20.55;61.71;100454.50;5043807;28;45444;-70
2024/04/05 11:02:42;;;;;;;;;2.00;2.00;;;;;20.72;61.95;100453.28;5048854;28;45451;-69
2024/04/05 11:05:15;;;;;;;;;5.00;2.25;;;;;20.82;61.21;100457.81;5057598;28;45297;-70
2024/04/05 11:07:41;;;;;;;;;2.00;2.00;;;;;20.90;60.47;100477.66;5052028;28;45411;-71
2024/04/05 11:10:17;;;;;;;;;2.25;1.00;;;;;20.86;60.32;100480.53;5057289;28;45235;-71
2024/04/05 11:12:44;;;;;;;;;1.00;1.00;;;;;20.81;59.72;100468.56;5033033;28;45501;-70
2024/04/05 11:15:10;;;;;;;;;4.75;2.75;;;;;20.84;60.29;100447.91;5049317;28;45557;-72
2024/04/05 11:17:35;;;;;;;;;2.00;2.00;;;;;20.98;60.02;100454.84;5065212;27;46152;-75
2024/04/05 11:20:13;;;;;;;;;3.00;2.75;;;;;21.10;59.76;100455.72;5057844;28;45487;-77